Time,TemperatureF,DewpointF,PressureIn,WindDirection,WindDirectionDegrees,WindSpeedMPH,WindSpeedGustMPH,Humidity,HourlyPrecipIn,Conditions,Clouds,dailyrainin,SoftwareType,DateUTC
2013-05-06 00:12:00,59.0,33.4,30.01,NW,315,1.6,-999.0,38,-99.99,,,0.00,Acu-Link.com,2013-05-06 04:12:00,
2013-05-06 00:27:00,57.2,31.2,30.02,SW,225,2.7,-999.0,37,-99.99,,,0.00,Acu-Link.com,2013-05-06 04:27:00,
2013-05-06 00:42:00,57.2,31.2,30.02,ESE,112,2.7,-999.0,37,-99.99,,,0.00,Acu-Link.com,2013-05-06 04:42:00,
2013-05-06 00:57:00,55.4,32.1,30.01,North,0,1.6,-999.0,41,-99.99,,,0.00,Acu-Link.com,2013-05-06 04:57:00,
2013-05-06 01:12:00,55.4,32.1,30.01,NW,315,1.6,-999.0,41,-99.99,,,0.00,Acu-Link.com,2013-05-06 05:12:00,
2013-05-06 01:28:00,55.4,32.7,30.01,NNE,22,1.6,-999.0,42,-99.99,,,0.00,Acu-Link.com,2013-05-06 05:28:00,
2013-05-06 01:43:00,55.4,32.1,30.01,East,90,1.1,-999.0,41,-99.99,,,0.00,Acu-Link.com,2013-05-06 05:43:00,
2013-05-06 01:58:00,55.4,34.4,30.01,SW,225,1.1,-999.0,45,-99.99,,,0.00,Acu-Link.com,2013-05-06 05:58:00,
2013-05-06 02:13:00,53.6,32.8,30.01,NNE,22,0.0,-999.0,45,-99.99,,,0.00,Acu-Link.com,2013-05-06 06:13:00,
2013-05-06 02:28:00,53.6,34.4,30.01,SE,135,1.6,-999.0,48,-99.99,,,0.00,Acu-Link.com,2013-05-06 06:28:00,
2013-05-06 02:43:00,53.6,35.9,30.01,ESE,112,1.6,-999.0,51,-99.99,,,0.00,Acu-Link.com,2013-05-06 06:43:00,
2013-05-06 02:58:00,51.8,35.7,30.01,SW,225,0.0,-999.0,54,-99.99,,,0.00,Acu-Link.com,2013-05-06 06:58:00,
2013-05-06 03:13:00,51.8,36.2,30.01,East,90,0.0,-999.0,55,-99.99,,,0.00,Acu-Link.com,2013-05-06 07:13:00,
2013-05-06 03:28:00,51.8,36.6,30.00,East,90,1.6,-999.0,56,-99.99,,,0.00,Acu-Link.com,2013-05-06 07:28:00,
2013-05-06 03:43:00,51.8,35.7,30.01,SE,135,1.6,-999.0,54,-99.99,,,0.00,Acu-Link.com,2013-05-06 07:43:00,
2013-05-06 03:58:00,51.8,35.7,30.01,West,270,2.0,-999.0,54,-99.99,,,0.00,Acu-Link.com,2013-05-06 07:58:00,
2013-05-06 04:13:00,51.8,36.6,30.01,West,270,0.0,-999.0,56,-99.99,,,0.00,Acu-Link.com,2013-05-06 08:13:00,
2013-05-06 04:29:00,51.8,37.9,30.01,East,90,0.0,-999.0,59,-99.99,,,0.00,Acu-Link.com,2013-05-06 08:29:00,
2013-05-06 04:44:00,50.0,37.9,30.01,SSE,157,2.7,-999.0,63,-99.99,,,0.00,Acu-Link.com,2013-05-06 08:44:00,
2013-05-06 04:59:00,50.0,39.1,30.01,NNE,22,4.7,-999.0,66,-99.99,,,0.00,Acu-Link.com,2013-05-06 08:59:00,
2013-05-06 05:14:00,50.0,39.1,30.02,West,270,0.0,-999.0,66,-99.99,,,0.00,Acu-Link.com,2013-05-06 09:14:00,
2013-05-06 05:29:00,50.0,39.9,30.02,West,270,0.0,-999.0,68,-99.99,,,0.00,Acu-Link.com,2013-05-06 09:29:00,
2013-05-06 05:44:00,50.0,39.9,30.02,NW,315,0.0,-999.0,68,-99.99,,,0.00,Acu-Link.com,2013-05-06 09:44:00,
2013-05-06 05:59:00,50.0,39.5,30.02,SW,225,1.6,-999.0,67,-99.99,,,0.00,Acu-Link.com,2013-05-06 09:59:00,
2013-05-06 06:14:00,50.0,39.5,30.03,NE,45,2.7,-999.0,67,-99.99,,,0.00,Acu-Link.com,2013-05-06 10:14:00,
2013-05-06 06:30:00,50.0,39.1,30.02,SSW,202,3.1,-999.0,66,-99.99,,,0.00,Acu-Link.com,2013-05-06 10:30:00,
2013-05-06 06:45:00,50.0,40.2,30.03,West,270,0.0,-999.0,69,-99.99,,,0.00,Acu-Link.com,2013-05-06 10:45:00,
2013-05-06 07:00:00,50.0,40.6,30.03,South,180,0.0,-999.0,70,-99.99,,,0.00,Acu-Link.com,2013-05-06 11:00:00,
2013-05-06 07:15:00,51.8,40.8,30.03,SSW,202,0.0,-999.0,66,-99.99,,,0.00,Acu-Link.com,2013-05-06 11:15:00,
2013-05-06 07:30:00,51.8,39.2,30.03,SSW,202,2.7,-999.0,62,-99.99,,,0.00,Acu-Link.com,2013-05-06 11:30:00,
2013-05-06 07:45:00,53.6,41.7,30.03,SE,135,3.6,-999.0,64,-99.99,,,0.00,Acu-Link.com,2013-05-06 11:45:00,
2013-05-06 08:00:00,53.6,40.9,30.04,NE,45,1.6,-999.0,62,-99.99,,,0.00,Acu-Link.com,2013-05-06 12:00:00,
2013-05-06 08:15:00,53.6,40.1,30.04,SW,225,3.6,-999.0,60,-99.99,,,0.00,Acu-Link.com,2013-05-06 12:15:00,
2013-05-06 08:30:00,55.4,41.7,30.04,SW,225,2.7,-999.0,60,-99.99,,,0.00,Acu-Link.com,2013-05-06 12:30:00,
2013-05-06 08:45:00,55.4,42.6,30.05,West,270,2.7,-999.0,62,-99.99,,,0.00,Acu-Link.com,2013-05-06 12:45:00,
2013-05-06 09:00:00,59.0,44.7,30.05,West,270,3.1,-999.0,59,-99.99,,,0.00,Acu-Link.com,2013-05-06 13:00:00,
2013-05-06 09:15:00,62.6,44.7,30.05,South,180,4.0,-999.0,52,-99.99,,,0.00,Acu-Link.com,2013-05-06 13:15:00,
2013-05-06 09:30:00,64.4,44.3,30.05,West,270,3.1,-999.0,48,-99.99,,,0.00,Acu-Link.com,2013-05-06 13:30:00,
2013-05-06 09:45:00,64.4,45.4,30.05,NNE,22,3.6,-999.0,50,-99.99,,,0.00,Acu-Link.com,2013-05-06 13:45:00,
2013-05-06 10:01:00,64.4,46.9,30.05,SE,135,2.0,-999.0,53,-99.99,,,0.00,Acu-Link.com,2013-05-06 14:01:00,
2013-05-06 10:16:00,64.4,46.9,30.05,SE,135,3.1,-999.0,53,-99.99,,,0.00,Acu-Link.com,2013-05-06 14:16:00,
2013-05-06 10:31:00,64.4,48.4,30.05,WNW,292,2.7,-999.0,56,-99.99,,,0.00,Acu-Link.com,2013-05-06 14:31:00,
2013-05-06 10:46:00,64.4,46.9,30.05,WSW,247,2.0,-999.0,53,-99.99,,,0.00,Acu-Link.com,2013-05-06 14:46:00,
2013-05-06 11:01:00,66.2,48.0,30.05,WNW,292,2.0,-999.0,52,-99.99,,,0.00,Acu-Link.com,2013-05-06 15:01:00,
2013-05-06 11:17:00,69.8,49.2,30.05,WSW,247,0.0,-999.0,48,-99.99,,,0.00,Acu-Link.com,2013-05-06 15:17:00,
2013-05-06 11:32:00,69.8,49.8,30.05,WNW,292,1.1,-999.0,49,-99.99,,,0.00,Acu-Link.com,2013-05-06 15:32:00,
2013-05-06 11:47:00,69.8,50.3,30.04,ESE,112,3.6,-999.0,50,-99.99,,,0.00,Acu-Link.com,2013-05-06 15:47:00,
2013-05-06 12:02:00,71.6,49.7,30.04,NW,315,2.0,-999.0,46,-99.99,,,0.00,Acu-Link.com,2013-05-06 16:02:00,
2013-05-06 12:17:00,71.6,50.9,30.03,North,0,4.7,-999.0,48,-99.99,,,0.00,Acu-Link.com,2013-05-06 16:17:00,
2013-05-06 12:32:00,73.4,53.6,30.03,ESE,112,2.0,-999.0,50,-99.99,,,0.00,Acu-Link.com,2013-05-06 16:32:00,
2013-05-06 12:48:00,73.4,51.3,30.02,WSW,247,3.6,-999.0,46,-99.99,,,0.00,Acu-Link.com,2013-05-06 16:48:00,
2013-05-06 13:03:00,73.4,53.1,30.02,East,90,1.6,-999.0,49,-99.99,,,0.00,Acu-Link.com,2013-05-06 17:03:00,
2013-05-06 13:18:00,75.2,53.0,30.01,South,180,2.7,-999.0,46,-99.99,,,0.00,Acu-Link.com,2013-05-06 17:18:00,
2013-05-06 13:33:00,77.0,56.4,30.01,West,270,3.1,-999.0,49,-99.99,,,0.00,Acu-Link.com,2013-05-06 17:33:00,
2013-05-06 13:49:00,75.2,51.2,30.01,NNE,22,4.7,-999.0,43,-99.99,,,0.00,Acu-Link.com,2013-05-06 17:49:00,
2013-05-06 14:04:00,73.4,51.3,30.00,NNW,337,3.1,-999.0,46,-99.99,,,0.00,Acu-Link.com,2013-05-06 18:04:00,
2013-05-06 14:19:00,73.4,50.1,30.00,SE,135,2.7,-999.0,44,-99.99,,,0.00,Acu-Link.com,2013-05-06 18:19:00,
2013-05-06 14:34:00,75.2,49.9,29.99,ENE,67,2.0,-999.0,41,-99.99,,,0.00,Acu-Link.com,2013-05-06 18:34:00,
2013-05-06 14:49:00,77.0,52.8,29.99,WSW,247,3.6,-999.0,43,-99.99,,,0.00,Acu-Link.com,2013-05-06 18:49:00,
2013-05-06 15:04:00,73.4,51.3,29.98,ENE,67,1.6,-999.0,46,-99.99,,,0.00,Acu-Link.com,2013-05-06 19:04:00,
2013-05-06 15:20:00,77.0,51.5,29.98,SE,135,2.0,-999.0,41,-99.99,,,0.00,Acu-Link.com,2013-05-06 19:20:00,
2013-05-06 15:35:00,77.0,52.1,29.98,NNE,22,2.0,-999.0,42,-99.99,,,0.00,Acu-Link.com,2013-05-06 19:35:00,
2013-05-06 15:50:00,73.4,49.5,29.97,SW,225,3.1,-999.0,43,-99.99,,,0.00,Acu-Link.com,2013-05-06 19:50:00,
2013-05-06 16:05:00,77.0,50.8,29.97,NNE,22,7.2,-999.0,40,-99.99,,,0.00,Acu-Link.com,2013-05-06 20:05:00,
2013-05-06 16:20:00,73.4,48.9,29.96,South,180,3.6,-999.0,42,-99.99,,,0.00,Acu-Link.com,2013-05-06 20:20:00,
2013-05-06 16:35:00,77.0,52.8,29.96,SSE,157,4.0,-999.0,43,-99.99,,,0.00,Acu-Link.com,2013-05-06 20:35:00,
2013-05-06 16:50:00,73.4,50.1,29.95,East,90,1.1,-999.0,44,-99.99,,,0.77,Acu-Link.com,2013-05-06 20:50:00,
2013-05-06 17:06:00,73.4,50.1,29.95,NE,45,5.6,-999.0,44,-99.99,,,0.77,Acu-Link.com,2013-05-06 21:06:00,
2013-05-06 17:21:00,73.4,49.5,29.95,East,90,3.6,-999.0,43,-99.99,,,0.77,Acu-Link.com,2013-05-06 21:21:00,
2013-05-06 17:36:00,73.4,49.5,29.95,NNE,22,2.7,-999.0,43,-99.99,,,0.77,Acu-Link.com,2013-05-06 21:36:00,
2013-05-06 17:51:00,73.4,51.3,29.95,ESE,112,2.7,-999.0,46,-99.99,,,0.77,Acu-Link.com,2013-05-06 21:51:00,
2013-05-06 18:06:00,73.4,49.5,29.96,ESE,112,3.6,-999.0,43,-99.99,,,0.77,Acu-Link.com,2013-05-06 22:06:00,
2013-05-06 18:21:00,77.0,52.1,29.96,SSW,202,3.1,-999.0,42,-99.99,,,0.77,Acu-Link.com,2013-05-06 22:21:00,
2013-05-06 18:37:00,75.2,50.5,29.96,SSW,202,4.0,-999.0,42,-99.99,,,0.77,Acu-Link.com,2013-05-06 22:37:00,
2013-05-06 18:52:00,75.2,51.2,29.95,NNW,337,3.1,-999.0,43,-99.99,,,0.77,Acu-Link.com,2013-05-06 22:52:00,
2013-05-06 19:07:00,73.4,51.3,29.95,ENE,67,3.6,-999.0,46,-99.99,,,0.77,Acu-Link.com,2013-05-06 23:07:00,
2013-05-06 19:22:00,73.4,50.8,29.95,West,270,1.6,-999.0,45,-99.99,,,0.77,Acu-Link.com,2013-05-06 23:22:00,
2013-05-06 19:37:00,71.6,50.3,29.96,NE,45,1.6,-999.0,47,-99.99,,,0.77,Acu-Link.com,2013-05-06 23:37:00,
2013-05-06 19:52:00,71.6,53.6,29.97,West,270,2.7,-999.0,53,-99.99,,,0.77,Acu-Link.com,2013-05-06 23:52:00,
2013-05-06 20:07:00,69.8,49.8,29.97,ESE,112,2.0,-999.0,49,-99.99,,,0.77,Acu-Link.com,2013-05-07 00:07:00,
2013-05-06 20:22:00,68.0,49.7,29.98,West,270,2.7,-999.0,52,-99.99,,,0.77,Acu-Link.com,2013-05-07 00:22:00,
2013-05-06 20:38:00,68.0,50.7,29.98,NNW,337,0.0,-999.0,54,-99.99,,,0.77,Acu-Link.com,2013-05-07 00:38:00,
2013-05-06 20:53:00,64.4,49.3,29.98,SE,135,0.0,-999.0,58,-99.99,,,0.77,Acu-Link.com,2013-05-07 00:53:00,
2013-05-06 21:08:00,62.6,48.5,29.98,SW,225,0.0,-999.0,60,-99.99,,,0.77,Acu-Link.com,2013-05-07 01:08:00,
2013-05-06 21:23:00,62.6,49.8,29.99,SW,225,0.0,-999.0,63,-99.99,,,0.77,Acu-Link.com,2013-05-07 01:23:00,
2013-05-06 21:38:00,60.8,49.0,30.00,SW,225,0.0,-999.0,65,-99.99,,,0.77,Acu-Link.com,2013-05-07 01:38:00,
2013-05-06 21:53:00,60.8,50.6,30.00,ESE,112,0.0,-999.0,69,-99.99,,,0.77,Acu-Link.com,2013-05-07 01:53:00,
2013-05-06 22:08:00,59.0,49.6,30.00,ESE,112,0.0,-999.0,71,-99.99,,,0.77,Acu-Link.com,2013-05-07 02:08:00,
2013-05-06 22:23:00,59.0,51.4,30.01,ESE,112,0.0,-999.0,76,-99.99,,,0.77,Acu-Link.com,2013-05-07 02:23:00,
2013-05-06 22:38:00,57.2,50.1,30.01,ESE,112,0.0,-999.0,77,-99.99,,,0.77,Acu-Link.com,2013-05-07 02:38:00,
2013-05-06 22:53:00,55.4,48.7,30.01,ESE,112,0.0,-999.0,78,-99.99,,,0.77,Acu-Link.com,2013-05-07 02:53:00,
2013-05-06 23:08:00,55.4,48.7,30.01,ESE,112,0.0,-999.0,78,-99.99,,,0.77,Acu-Link.com,2013-05-07 03:08:00,
2013-05-06 23:23:00,55.4,49.3,30.01,ESE,112,0.0,-999.0,80,-99.99,,,0.77,Acu-Link.com,2013-05-07 03:23:00,
2013-05-06 23:38:00,55.4,49.3,30.01,SSW,202,3.1,-999.0,80,-99.99,,,0.77,Acu-Link.com,2013-05-07 03:38:00,
2013-05-06 23:53:00,55.4,49.3,30.01,NE,45,1.1,-999.0,80,-99.99,,,0.77,Acu-Link.com,2013-05-07 03:53:00,